Time;durP1;ratioP1;P1;durP2;ratioP2;P2;SDS_P1;SDS_P2;PMS_P1;PMS_P2;Temp;Humidity;BMP_temperature;BMP_pressure;BME280_temperature;BME280_humidity;BME280_pressure;Samples;Min_cycle;Max_cycle;Signal;HPM_P1;HPM_P2
2022/10/22 00:01:35;;;;;;;;;0.00;0.00;;;;;25.22;48.14;100640.31;5036942;28;45396;-74
2022/10/22 00:04:01;;;;;;;;;1.00;1.00;;;;;25.23;48.13;100649.94;5036466;28;45938;-75
2022/10/22 00:06:26;;;;;;;;;0.00;0.00;;;;;25.23;47.90;100652.59;5036992;28;45390;-74
2022/10/22 00:08:52;;;;;;;;;0.00;0.00;;;;;25.21;48.00;100658.16;5036684;28;45689;-75
2022/10/22 00:11:18;;;;;;;;;0.00;0.00;;;;;25.23;48.07;100661.41;5035723;28;45456;-74
2022/10/22 00:13:45;;;;;;;;;2.33;1.00;;;;;25.24;48.30;100662.25;5036778;28;46116;-75
2022/10/22 00:16:10;;;;;;;;;0.00;0.00;;;;;25.24;48.06;100662.25;5036591;28;45416;-73
2022/10/22 00:18:36;;;;;;;;;2.67;1.00;;;;;25.23;47.91;100663.25;5035665;28;45349;-74
2022/10/22 00:21:01;;;;;;;;;0.00;0.00;;;;;25.14;47.92;100657.31;5036722;28;45281;-75
2022/10/22 00:23:27;;;;;;;;;1.67;1.67;;;;;25.23;48.06;100673.91;5036266;28;45907;-75
2022/10/22 00:25:52;;;;;;;;;1.33;0.00;;;;;25.22;47.91;100683.72;5036659;28;45488;-75
2022/10/22 00:28:18;;;;;;;;;0.33;0.33;;;;;25.22;48.02;100680.25;5022981;28;45507;-73
2022/10/22 00:30:43;;;;;;;;;0.00;0.00;;;;;25.16;48.09;100669.41;5031039;28;45508;-74
2022/10/22 00:33:08;;;;;;;;;0.00;0.00;;;;;25.21;48.15;100682.13;5027490;28;46125;-75
2022/10/22 00:35:34;;;;;;;;;0.00;0.00;;;;;25.20;48.14;100679.63;5036187;28;45374;-75
2022/10/22 00:38:01;;;;;;;;;0.33;0.33;;;;;25.10;48.15;100667.56;5036471;28;45372;-75
2022/10/22 00:40:26;;;;;;;;;0.00;0.00;;;;;25.19;48.03;100692.13;5036366;28;45462;-74
2022/10/22 00:42:52;;;;;;;;;0.00;0.00;;;;;25.18;48.23;100691.34;5036333;28;45911;-74
2022/10/22 00:45:23;;;;;;;;;0.67;0.00;;;;;25.21;48.16;100699.94;5036421;28;45352;-74
2022/10/22 00:47:50;;;;;;;;;0.00;0.00;;;;;25.21;48.33;100699.94;5036098;28;45333;-74
2022/10/22 00:50:42;;;;;;;;;0.00;0.00;;;;;25.20;48.00;100700.94;5035910;28;45491;-73
2022/10/22 00:53:12;;;;;;;;;1.00;1.00;;;;;25.20;48.04;100701.75;5036107;28;45420;-75
2022/10/22 00:55:38;;;;;;;;;0.00;0.00;;;;;25.20;48.39;100698.28;5035700;28;45373;-74
2022/10/22 00:58:04;;;;;;;;;0.00;0.00;;;;;25.14;48.12;100690.09;5036561;28;45297;-73
2022/10/22 01:00:30;;;;;;;;;4.00;1.00;;;;;25.20;46.90;100703.59;5036399;28;45266;-73
2022/10/22 01:02:56;;;;;;;;;1.67;1.67;;;;;25.18;47.11;100701.16;5035543;28;45479;-73
2022/10/22 01:05:25;;;;;;;;;2.33;0.00;;;;;25.17;47.49;100713.66;5036303;28;45255;-74
2022/10/22 01:07:52;;;;;;;;;1.00;1.00;;;;;25.15;48.06;100710.38;5035904;28;45404;-74
2022/10/22 01:10:48;;;;;;;;;0.00;0.00;;;;;25.15;47.66;100721.03;5036436;28;45372;-73
2022/10/22 01:13:30;;;;;;;;;0.00;0.00;;;;;25.15;47.51;100723.69;5035823;28;46428;-73
2022/10/22 01:16:10;;;;;;;;;0.00;0.00;;;;;25.16;47.78;100727.16;5035732;28;45321;-73
2022/10/22 01:18:50;;;;;;;;;1.00;1.00;;;;;25.16;47.75;100729.84;5035796;28;45417;-73
2022/10/22 01:21:24;;;;;;;;;1.00;0.00;;;;;25.16;47.81;100725.31;5035027;28;45548;-73
2022/10/22 01:24:10;;;;;;;;;1.00;1.00;;;;;25.17;47.72;100728.78;5035773;28;47108;-73
2022/10/22 01:26:50;;;;;;;;;0.00;0.00;;;;;25.16;47.98;100735.16;5035655;28;45396;-73
2022/10/22 01:29:21;;;;;;;;;0.00;0.00;;;;;25.15;48.04;100737.00;5023312;28;45271;-73
2022/10/22 01:32:00;;;;;;;;;1.00;1.00;;;;;25.16;47.74;100745.81;5035680;28;45377;-74
2022/10/22 01:34:28;;;;;;;;;2.00;0.00;;;;;25.17;47.86;100742.09;5023485;28;46212;-73
2022/10/22 01:36:56;;;;;;;;;0.00;0.00;;;;;25.16;47.89;100743.94;5035434;28;45464;-73
2022/10/22 01:39:24;;;;;;;;;0.33;0.33;;;;;25.16;48.05;100748.47;5035635;28;45325;-74
2022/10/22 01:41:53;;;;;;;;;0.00;0.00;;;;;25.12;48.02;100739.22;5035667;28;45651;-73
2022/10/22 01:44:33;;;;;;;;;0.00;0.00;;;;;25.16;47.93;100753.78;5035376;28;46135;-74
2022/10/22 01:47:11;;;;;;;;;0.00;0.00;;;;;25.17;47.86;100752.75;5035474;28;45362;-74
2022/10/22 01:50:09;;;;;;;;;1.00;1.00;;;;;25.18;48.16;100759.72;5035401;28;45337;-74
2022/10/22 01:53:05;;;;;;;;;0.00;0.00;;;;;25.16;47.98;100757.25;5035440;28;45507;-74
2022/10/22 01:55:44;;;;;;;;;1.00;1.00;;;;;25.16;47.92;100767.91;5035360;28;46465;-74
2022/10/22 01:58:30;;;;;;;;;0.00;0.00;;;;;25.12;48.05;100764.00;5028178;28;45563;-74
2022/10/22 02:01:04;;;;;;;;;1.00;0.00;;;;;25.15;47.81;100776.09;5030888;28;45464;-74
2022/10/22 02:03:43;;;;;;;;;0.00;0.00;;;;;25.16;47.74;100772.44;5035381;28;45315;-73
2022/10/22 02:06:16;;;;;;;;;0.33;0.33;;;;;25.15;47.95;100774.25;5035062;28;45386;-73
2022/10/22 02:08:42;;;;;;;;;2.00;0.33;;;;;25.14;47.98;100774.44;5035305;28;45294;-73
2022/10/22 02:11:08;;;;;;;;;1.33;1.00;;;;;25.09;47.95;100774.25;5035241;28;45412;-75
2022/10/22 02:13:43;;;;;;;;;0.00;0.00;;;;;25.11;48.08;100782.88;5034915;28;45380;-74
2022/10/22 02:16:15;;;;;;;;;0.67;0.67;;;;;25.12;47.80;100789.81;5034786;28;45507;-74
2022/10/22 02:18:43;;;;;;;;;3.00;1.00;;;;;25.09;47.87;100783.06;5034877;28;45295;-74
2022/10/22 02:21:09;;;;;;;;;0.00;0.00;;;;;25.10;47.87;100789.19;5035101;28;45519;-74
2022/10/22 02:23:35;;;;;;;;;0.00;0.00;;;;;25.09;47.70;100782.22;5028592;28;45484;-74
2022/10/22 02:26:13;;;;;;;;;0.00;0.00;;;;;25.06;47.74;100786.94;5015030;28;45520;-74
2022/10/22 02:28:55;;;;;;;;;0.00;0.00;;;;;25.07;47.89;100795.75;5016882;28;45380;-74
2022/10/22 02:31:26;;;;;;;;;1.00;0.00;;;;;24.97;47.67;100782.81;5035052;28;45463;-74
2022/10/22 02:33:55;;;;;;;;;0.67;0.00;;;;;25.06;47.89;100799.41;5037350;28;45295;-74
2022/10/22 02:36:22;;;;;;;;;0.00;0.00;;;;;25.04;47.81;100798.81;5036890;28;47225;-74
2022/10/22 02:38:50;;;;;;;;;0.00;0.00;;;;;25.04;47.84;100796.16;5038397;28;45524;-74
2022/10/22 02:41:15;;;;;;;;;0.00;0.00;;;;;25.03;47.84;100805.97;5038556;28;45369;-74
2022/10/22 02:43:42;;;;;;;;;0.00;0.00;;;;;25.03;47.66;100805.97;5038151;28;45351;-73
2022/10/22 02:46:09;;;;;;;;;2.33;0.00;;;;;25.02;47.92;100812.31;5038279;28;46241;-74
2022/10/22 02:48:35;;;;;;;;;1.00;0.67;;;;;25.02;47.82;100811.50;5038361;28;45310;-74
2022/10/22 02:51:00;;;;;;;;;1.33;0.33;;;;;25.01;47.70;100813.34;5038390;28;45436;-75
2022/10/22 02:53:25;;;;;;;;;1.00;0.00;;;;;25.01;47.93;100818.66;5038345;28;45384;-73
2022/10/22 02:55:51;;;;;;;;;2.00;0.00;;;;;25.02;47.80;100824.81;5038493;28;46271;-73
2022/10/22 02:58:16;;;;;;;;;2.00;1.00;;;;;24.96;47.67;100816.56;5037599;28;53315;-74
2022/10/22 03:00:41;;;;;;;;;1.00;1.00;;;;;25.00;47.73;100825.00;5038064;28;51218;-74
2022/10/22 03:03:07;;;;;;;;;1.00;0.00;;;;;24.99;47.88;100831.31;5038107;28;45491;-74
2022/10/22 03:05:32;;;;;;;;;0.33;0.33;;;;;24.99;47.81;100836.66;5037928;28;45985;-74
2022/10/22 03:07:57;;;;;;;;;2.00;0.00;;;;;24.99;47.82;100838.47;5038118;28;45401;-74
2022/10/22 03:10:22;;;;;;;;;0.00;0.00;;;;;24.97;47.83;100836.03;5038080;28;46019;-74
2022/10/22 03:12:48;;;;;;;;;1.33;1.33;;;;;24.98;47.83;100840.34;5036002;28;45295;-74
2022/10/22 03:15:13;;;;;;;;;0.00;0.00;;;;;24.97;48.04;100846.69;5037937;28;47098;-74
2022/10/22 03:17:38;;;;;;;;;2.00;1.00;;;;;24.92;47.89;100839.31;5037654;28;45316;-74
2022/10/22 03:20:04;;;;;;;;;0.00;0.00;;;;;24.94;47.80;100847.06;5037891;28;45311;-74
2022/10/22 03:22:33;;;;;;;;;0.00;0.00;;;;;24.94;47.99;100853.22;5037919;28;45274;-74
2022/10/22 03:25:02;;;;;;;;;0.00;0.00;;;;;24.94;47.87;100855.88;5037571;28;45262;-75
2022/10/22 03:27:28;;;;;;;;;2.00;1.00;;;;;24.94;47.80;100847.91;5052760;28;46400;-74
2022/10/22 03:29:55;;;;;;;;;0.00;0.00;;;;;24.94;48.30;100853.22;5038051;28;45275;-73
2022/10/22 03:32:21;;;;;;;;;0.00;0.00;;;;;24.85;47.97;100839.25;5037591;28;45352;-73
2022/10/22 03:34:46;;;;;;;;;0.00;0.00;;;;;24.93;47.73;100848.13;5037307;28;49508;-73
2022/10/22 03:37:12;;;;;;;;;1.00;1.00;;;;;24.93;47.82;100858.75;5037595;28;45266;-74
2022/10/22 03:39:37;;;;;;;;;0.00;0.00;;;;;24.93;47.93;100856.88;5037749;28;45285;-74
2022/10/22 03:42:05;;;;;;;;;0.33;0.33;;;;;24.91;47.97;100856.28;5037048;28;45308;-73
2022/10/22 03:44:31;;;;;;;;;0.00;0.00;;;;;24.81;47.83;100847.84;5037232;28;46302;-73
2022/10/22 03:46:57;;;;;;;;;0.00;0.00;;;;;24.93;48.21;100869.41;5037466;28;45386;-74
2022/10/22 03:49:22;;;;;;;;;2.00;0.00;;;;;24.93;47.87;100877.38;5037251;28;45231;-74
2022/10/22 03:51:48;;;;;;;;;1.00;0.67;;;;;24.88;47.86;100872.63;5037685;28;45475;-74
2022/10/22 03:54:14;;;;;;;;;0.00;0.00;;;;;24.84;47.98;100868.75;5037025;28;46269;-74
2022/10/22 03:56:39;;;;;;;;;1.00;0.00;;;;;24.93;48.06;100886.16;5037012;28;45253;-74
2022/10/22 03:59:05;;;;;;;;;2.00;0.00;;;;;24.88;47.44;100877.97;5037225;28;45272;-74
2022/10/22 04:01:30;;;;;;;;;1.00;0.00;;;;;24.92;47.75;100883.72;5030641;28;45305;-74
2022/10/22 04:03:56;;;;;;;;;0.33;0.33;;;;;24.90;47.67;100883.94;5029842;28;45266;-74
2022/10/22 04:06:22;;;;;;;;;1.00;0.00;;;;;24.91;48.02;100892.72;5036916;28;45437;-74
2022/10/22 04:08:47;;;;;;;;;0.00;0.00;;;;;24.90;47.91;100891.91;5035995;28;45386;-74
2022/10/22 04:11:14;;;;;;;;;0.00;0.00;;;;;24.92;47.74;100892.53;5036729;28;45329;-74
2022/10/22 04:13:40;;;;;;;;;1.33;0.00;;;;;24.90;47.83;100897.22;5036866;28;47064;-73
2022/10/22 04:16:16;;;;;;;;;0.00;0.00;;;;;24.91;47.83;100898.03;5037019;28;45468;-75
2022/10/22 04:18:44;;;;;;;;;0.00;0.00;;;;;24.91;47.83;100912.16;5036706;28;45588;-74
2022/10/22 04:21:11;;;;;;;;;0.00;0.00;;;;;24.90;47.80;100907.06;5036782;28;45401;-75
2022/10/22 04:23:37;;;;;;;;;0.00;0.00;;;;;24.91;47.92;100912.16;5036432;28;46020;-74
2022/10/22 04:26:05;;;;;;;;;0.00;0.00;;;;;24.90;47.82;100915.03;5036375;28;45326;-74
2022/10/22 04:28:31;;;;;;;;;1.00;0.00;;;;;24.89;48.06;100916.03;5022860;28;45350;-74
2022/10/22 04:30:56;;;;;;;;;0.33;0.00;;;;;24.90;47.68;100915.88;5036722;28;45534;-74
2022/10/22 04:33:21;;;;;;;;;1.00;0.00;;;;;24.91;47.62;100914.00;5036644;28;46291;-74
2022/10/22 04:35:47;;;;;;;;;2.33;1.00;;;;;24.90;47.82;100918.53;5036632;28;45357;-74
2022/10/22 04:38:12;;;;;;;;;0.00;0.00;;;;;24.91;47.94;100921.97;5036780;28;45432;-75
2022/10/22 04:40:38;;;;;;;;;2.00;1.00;;;;;24.85;48.01;100921.75;5036243;28;45420;-74
2022/10/22 04:43:03;;;;;;;;;0.67;0.00;;;;;24.85;47.78;100916.44;5036793;28;45432;-74
2022/10/22 04:45:29;;;;;;;;;0.00;0.00;;;;;24.89;47.65;100922.19;5036473;28;45554;-74
2022/10/22 04:47:54;;;;;;;;;1.00;1.00;;;;;24.88;47.57;100931.19;5036836;28;45381;-74
2022/10/22 04:50:20;;;;;;;;;0.33;0.33;;;;;24.89;47.78;100935.50;5036543;28;45423;-75
2022/10/22 04:52:45;;;;;;;;;2.00;1.00;;;;;24.89;47.78;100940.00;5036023;28;46154;-74
2022/10/22 04:55:10;;;;;;;;;0.00;0.00;;;;;24.88;47.63;100931.19;5035463;28;45602;-74
2022/10/22 04:57:36;;;;;;;;;2.00;0.00;;;;;24.89;47.61;100940.81;5036474;28;45427;-74
2022/10/22 05:00:02;;;;;;;;;0.00;0.00;;;;;24.90;47.61;100934.50;5036426;28;45514;-73
2022/10/22 05:02:27;;;;;;;;;0.33;0.33;;;;;24.83;47.95;100936.28;5036043;28;46938;-74
2022/10/22 05:04:53;;;;;;;;;0.00;0.00;;;;;24.90;47.78;100946.97;5035957;28;45328;-74
2022/10/22 05:07:18;;;;;;;;;0.67;0.00;;;;;24.90;47.61;100950.47;5036577;28;45472;-74
2022/10/22 05:09:43;;;;;;;;;0.00;0.00;;;;;24.92;47.86;100947.59;5034527;28;45442;-74
2022/10/22 05:12:09;;;;;;;;;0.67;0.00;;;;;24.91;47.70;100951.25;5034442;28;53499;-74
2022/10/22 05:14:34;;;;;;;;;0.33;0.00;;;;;24.91;47.68;100951.25;5036036;28;45394;-74
2022/10/22 05:16:59;;;;;;;;;1.00;0.67;;;;;24.92;47.52;100948.41;5036050;28;45480;-74
2022/10/22 05:19:32;;;;;;;;;1.00;0.00;;;;;24.94;47.66;100958.84;5035930;28;45394;-74
2022/10/22 05:22:00;;;;;;;;;0.00;0.00;;;;;24.93;47.65;100962.56;5035787;28;46387;-73
2022/10/22 05:24:27;;;;;;;;;0.00;0.00;;;;;24.93;47.67;100959.88;5035505;28;45368;-74
2022/10/22 05:26:55;;;;;;;;;0.00;0.00;;;;;24.94;47.57;100956.19;5034579;28;45420;-74
2022/10/22 05:29:21;;;;;;;;;0.00;0.00;;;;;24.93;47.67;100954.56;5023899;28;45345;-74
2022/10/22 05:31:47;;;;;;;;;0.00;0.00;;;;;24.93;47.87;100957.22;5035915;28;46215;-74
2022/10/22 05:34:13;;;;;;;;;0.00;0.00;;;;;24.94;47.47;100966.84;5035550;28;45353;-74
2022/10/22 05:36:38;;;;;;;;;1.00;1.00;;;;;24.94;47.40;100973.00;5035798;28;45412;-74
2022/10/22 05:39:05;;;;;;;;;0.00;0.00;;;;;24.90;47.75;100968.25;5035715;28;45411;-74
2022/10/22 05:41:31;;;;;;;;;3.33;0.00;;;;;24.93;47.71;100976.66;5035641;28;47413;-73
2022/10/22 05:43:58;;;;;;;;;1.00;1.00;;;;;24.93;47.54;100973.19;5035302;28;45369;-74
2022/10/22 05:46:26;;;;;;;;;2.00;0.00;;;;;24.93;47.60;100974.00;5035637;28;45357;-74
2022/10/22 05:48:53;;;;;;;;;1.00;1.00;;;;;24.91;47.83;100973.38;5035373;28;45285;-74
2022/10/22 05:51:19;;;;;;;;;0.00;0.00;;;;;24.91;47.41;100981.34;5035123;28;45576;-74
2022/10/22 05:53:50;;;;;;;;;0.67;0.00;;;;;24.91;47.64;100985.84;5035202;28;45420;-74
2022/10/22 05:56:15;;;;;;;;;0.00;0.00;;;;;24.91;47.62;100985.84;5035362;28;45430;-74
2022/10/22 05:58:42;;;;;;;;;0.00;0.00;;;;;24.90;47.55;100994.88;5035581;28;45456;-73
2022/10/22 06:01:13;;;;;;;;;3.33;0.00;;;;;24.85;47.60;100984.81;5035239;28;46229;-74
2022/10/22 06:03:39;;;;;;;;;1.00;0.00;;;;;24.89;47.65;100998.53;5035115;28;45409;-74
2022/10/22 06:06:17;;;;;;;;;0.00;0.00;;;;;24.89;47.69;101001.19;5034524;28;45487;-74
2022/10/22 06:08:42;;;;;;;;;0.00;0.00;;;;;24.88;47.69;100997.72;5035443;28;45474;-74
2022/10/22 06:11:08;;;;;;;;;0.00;0.00;;;;;24.89;47.91;100998.53;5034987;28;46284;-74
2022/10/22 06:13:33;;;;;;;;;0.00;0.00;;;;;24.88;47.94;101005.69;5035175;28;45384;-74
2022/10/22 06:15:58;;;;;;;;;1.67;0.00;;;;;24.83;47.89;101000.97;5035559;28;45381;-74
2022/10/22 06:18:24;;;;;;;;;0.00;0.00;;;;;24.87;47.43;101013.88;5034918;28;45520;-74
2022/10/22 06:20:49;;;;;;;;;1.00;1.00;;;;;24.86;47.71;101013.06;5034596;28;45463;-74
2022/10/22 06:23:15;;;;;;;;;0.67;0.67;;;;;24.88;47.93;101026.19;5035023;28;45396;-74
2022/10/22 06:25:42;;;;;;;;;4.00;0.00;;;;;24.87;47.67;101025.34;5035060;28;45419;-74
2022/10/22 06:28:07;;;;;;;;;0.00;0.00;;;;;24.87;47.62;101032.50;5023204;28;45547;-74
2022/10/22 06:30:33;;;;;;;;;0.00;0.00;;;;;24.84;47.71;101031.91;5032741;28;45350;-74
2022/10/22 06:32:58;;;;;;;;;0.67;0.67;;;;;24.87;47.77;101036.00;5034805;28;45503;-73
2022/10/22 06:35:23;;;;;;;;;0.00;0.00;;;;;24.86;47.64;101039.66;5034682;28;45302;-74
2022/10/22 06:37:48;;;;;;;;;1.00;0.00;;;;;24.87;47.63;101037.84;5035118;28;45303;-74
2022/10/22 06:40:15;;;;;;;;;1.00;1.00;;;;;24.87;47.70;101043.16;5035030;28;45260;-75
2022/10/22 06:42:40;;;;;;;;;0.00;0.00;;;;;24.87;47.55;101043.16;5034742;28;45325;-74
2022/10/22 06:45:06;;;;;;;;;2.00;0.00;;;;;24.87;47.74;101045.81;5035990;28;45265;-73
2022/10/22 06:47:32;;;;;;;;;0.67;0.00;;;;;24.88;47.55;101050.94;5035250;28;45524;-74
2022/10/22 06:49:57;;;;;;;;;0.00;0.00;;;;;24.88;47.72;101055.47;5034790;28;45565;-74
2022/10/22 06:52:23;;;;;;;;;0.00;0.00;;;;;24.89;47.66;101057.09;5040753;28;45523;-74
2022/10/22 06:54:48;;;;;;;;;0.33;0.00;;;;;24.89;47.79;101065.06;5035102;28;45365;-74
2022/10/22 06:57:13;;;;;;;;;1.00;1.00;;;;;24.90;47.65;101069.38;5035378;28;45365;-74
2022/10/22 06:59:39;;;;;;;;;1.00;0.67;;;;;24.89;47.53;101073.88;5034469;28;46167;-75
2022/10/22 07:02:04;;;;;;;;;0.67;0.67;;;;;24.86;47.52;101074.25;5034789;28;45495;-74
2022/10/22 07:04:30;;;;;;;;;0.00;0.00;;;;;24.89;47.70;101087.19;5034717;28;46037;-74
2022/10/22 07:06:55;;;;;;;;;0.00;0.00;;;;;24.90;47.76;101094.16;5034751;28;46236;-73
2022/10/22 07:09:20;;;;;;;;;1.67;0.00;;;;;24.90;47.60;101096.00;5034529;28;46282;-75
2022/10/22 07:11:46;;;;;;;;;0.00;0.00;;;;;24.89;47.56;101103.16;5034536;28;47440;-74
2022/10/22 07:14:12;;;;;;;;;0.67;0.67;;;;;24.90;47.69;101102.16;5034537;28;45400;-74
2022/10/22 07:16:38;;;;;;;;;0.00;0.00;;;;;24.90;47.42;101107.47;5034078;28;45404;-73
2022/10/22 07:19:04;;;;;;;;;1.00;0.00;;;;;24.91;47.63;101101.13;5035559;28;45956;-74
2022/10/22 07:21:30;;;;;;;;;1.67;0.00;;;;;24.94;47.52;101106.06;5037896;28;45431;-74
2022/10/22 07:23:56;;;;;;;;;1.00;0.00;;;;;24.97;47.57;101118.16;5038026;28;45403;-73
2022/10/22 07:26:24;;;;;;;;;0.00;0.00;;;;;24.99;47.42;101108.13;5037779;28;45299;-74
2022/10/22 07:28:50;;;;;;;;;0.00;0.00;;;;;25.02;47.49;101115.78;5023586;28;45689;-74
2022/10/22 07:31:18;;;;;;;;;0.00;0.00;;;;;24.99;47.44;101113.47;5037765;28;45404;-74
2022/10/22 07:33:44;;;;;;;;;2.00;0.67;;;;;25.03;47.06;101120.06;5037398;28;45445;-73
2022/10/22 07:36:16;;;;;;;;;0.33;0.33;;;;;25.02;47.22;101126.41;5037631;28;45493;-73
2022/10/22 07:38:42;;;;;;;;;1.00;1.00;;;;;25.01;47.46;101124.75;5037282;28;46252;-74
2022/10/22 07:41:08;;;;;;;;;1.00;0.00;;;;;25.01;47.35;101126.63;5037606;28;45366;-74
2022/10/22 07:43:33;;;;;;;;;0.00;0.00;;;;;24.98;47.36;101122.47;5037429;28;45379;-74
2022/10/22 07:45:59;;;;;;;;;0.00;0.00;;;;;24.95;47.41;101123.69;5037489;28;45412;-73
2022/10/22 07:48:24;;;;;;;;;1.00;1.00;;;;;25.01;46.89;101137.28;5037294;28;45584;-74
2022/10/22 07:50:51;;;;;;;;;0.33;0.33;;;;;25.03;47.50;101140.56;5037269;28;45438;-74
2022/10/22 07:53:16;;;;;;;;;3.33;1.00;;;;;24.99;47.18;101123.28;5037465;28;45289;-75
2022/10/22 07:55:41;;;;;;;;;1.67;1.00;;;;;25.14;47.30;101141.84;5037372;28;45428;-74
2022/10/22 07:58:07;;;;;;;;;1.00;0.00;;;;;25.25;47.22;101151.97;5037276;28;46283;-74
2022/10/22 08:00:32;;;;;;;;;0.67;0.67;;;;;25.25;47.07;101140.47;5037329;28;45349;-75
2022/10/22 08:02:57;;;;;;;;;1.00;0.00;;;;;25.36;47.07;101149.78;5037049;28;45441;-74
2022/10/22 08:05:23;;;;;;;;;0.00;0.00;;;;;25.43;47.11;101147.97;5037318;28;45416;-74
2022/10/22 08:07:48;;;;;;;;;0.00;0.00;;;;;25.48;46.85;101156.19;5037290;28;46059;-75
2022/10/22 08:10:14;;;;;;;;;1.00;0.00;;;;;25.47;46.82;101153.72;5029008;28;45305;-74
2022/10/22 08:12:39;;;;;;;;;1.33;1.33;;;;;25.42;46.45;101148.19;5031484;28;45420;-74
2022/10/22 08:15:05;;;;;;;;;0.67;0.67;;;;;25.39;46.63;101139.56;5037151;28;45290;-74
2022/10/22 08:17:31;;;;;;;;;1.33;0.00;;;;;25.48;46.84;101150.03;5036274;28;46261;-75
2022/10/22 08:19:56;;;;;;;;;0.00;0.00;;;;;25.49;46.49;101151.69;5036803;28;45420;-74
2022/10/22 08:22:21;;;;;;;;;0.00;0.00;;;;;25.50;46.55;101151.47;5037060;28;45398;-74
2022/10/22 08:24:47;;;;;;;;;0.67;0.67;;;;;25.52;46.69;101160.13;5036802;28;45507;-74
2022/10/22 08:27:13;;;;;;;;;0.00;0.00;;;;;25.52;46.59;101154.81;5032492;28;47092;-74
2022/10/22 08:29:38;;;;;;;;;0.67;0.00;;;;;25.54;46.62;101167.91;5025621;28;45574;-74
2022/10/22 08:32:04;;;;;;;;;4.00;1.00;;;;;25.56;46.61;101171.19;5036518;28;45397;-75
2022/10/22 08:34:30;;;;;;;;;0.00;0.00;;;;;25.49;46.49;101155.19;5037105;28;45307;-73
2022/10/22 08:36:55;;;;;;;;;1.00;0.00;;;;;25.59;46.63;101169.97;5036500;28;47056;-75
2022/10/22 08:39:21;;;;;;;;;1.00;1.00;;;;;25.58;46.81;101163.81;5036759;28;45240;-74
2022/10/22 08:42:28;;;;;;;;;0.00;0.00;;;;;25.58;46.47;101169.16;5036886;28;45282;-75
2022/10/22 08:45:21;;;;;;;;;0.00;0.00;;;;;25.55;46.65;101163.41;5036821;28;45433;-75
2022/10/22 08:47:58;;;;;;;;;1.00;1.00;;;;;25.57;46.52;101175.53;5036409;28;46286;-74
2022/10/22 08:50:34;;;;;;;;;0.00;0.00;;;;;25.58;46.51;101189.66;5036510;28;45390;-74
2022/10/22 08:53:05;;;;;;;;;0.00;0.00;;;;;25.48;46.67;101190.00;5036499;28;45293;-74
2022/10/22 08:55:32;;;;;;;;;1.00;1.00;;;;;25.56;46.36;101197.00;5035300;28;45381;-74
2022/10/22 08:58:16;;;;;;;;;0.00;0.00;;;;;25.55;46.47;101195.38;5036110;28;46231;-74
2022/10/22 09:01:08;;;;;;;;;0.00;0.00;;;;;25.54;46.38;101188.41;5036135;28;45378;-74
2022/10/22 09:03:34;;;;;;;;;0.00;0.00;;;;;25.54;46.52;101188.41;5036298;28;45435;-74
2022/10/22 09:06:09;;;;;;;;;0.67;0.67;;;;;25.50;46.41;101182.66;5036552;28;45513;-74
2022/10/22 09:08:36;;;;;;;;;0.00;0.00;;;;;25.50;46.27;101188.78;5036522;28;47256;-75
2022/10/22 09:11:11;;;;;;;;;1.00;0.00;;;;;25.48;46.72;101187.34;5035929;28;45286;-75
2022/10/22 09:13:37;;;;;;;;;0.00;0.00;;;;;25.48;46.55;101184.66;5036186;28;45428;-74
2022/10/22 09:16:21;;;;;;;;;0.67;0.00;;;;;25.45;46.56;101172.56;5035961;28;45584;-74
2022/10/22 09:19:17;;;;;;;;;0.00;0.00;;;;;25.45;46.59;101169.91;5035947;28;47440;-74
2022/10/22 09:21:53;;;;;;;;;1.00;0.00;;;;;25.42;46.63;101157.00;5035640;28;45368;-73
2022/10/22 09:24:46;;;;;;;;;0.67;0.00;;;;;25.43;46.66;101165.78;5036099;28;45337;-74
2022/10/22 09:27:19;;;;;;;;;0.00;0.00;;;;;25.39;46.45;101163.53;5029519;28;45282;-73
2022/10/22 09:29:46;;;;;;;;;2.00;1.00;;;;;25.40;46.78;101161.66;5026776;28;46207;-74
2022/10/22 09:32:13;;;;;;;;;0.33;0.33;;;;;25.39;46.71;101160.03;5035499;28;45329;-74
2022/10/22 09:34:38;;;;;;;;;1.00;0.00;;;;;25.37;46.78;101167.41;5036135;28;45454;-75
2022/10/22 09:37:07;;;;;;;;;0.00;0.00;;;;;25.38;46.94;101177.03;5035802;28;45476;-74
2022/10/22 09:39:35;;;;;;;;;0.00;0.00;;;;;25.37;46.38;101180.72;5035753;28;45328;-75
2022/10/22 09:42:01;;;;;;;;;0.00;0.00;;;;;25.32;46.51;101172.50;5035043;28;45309;-74
2022/10/22 09:44:26;;;;;;;;;0.00;0.00;;;;;25.35;46.79;101174.75;5035756;28;45280;-75
2022/10/22 09:46:52;;;;;;;;;0.00;0.00;;;;;25.34;46.78;101173.13;5035747;28;45274;-73
2022/10/22 09:49:21;;;;;;;;;0.33;0.00;;;;;25.32;46.95;101177.81;5035517;28;45992;-75
2022/10/22 09:51:54;;;;;;;;;0.00;0.00;;;;;25.32;47.12;101175.16;5035802;28;45358;-74
2022/10/22 09:54:29;;;;;;;;;0.00;0.00;;;;;25.31;46.82;101169.00;5032192;28;45328;-74
2022/10/22 09:57:02;;;;;;;;;0.00;0.00;;;;;25.23;47.01;101155.84;5026440;28;45380;-74
2022/10/22 09:59:31;;;;;;;;;0.00;0.00;;;;;25.28;47.16;101170.22;5035086;28;46164;-75
2022/10/22 10:02:05;;;;;;;;;1.00;0.00;;;;;25.27;46.91;101176.56;5035427;28;45306;-74
2022/10/22 10:04:34;;;;;;;;;0.00;0.00;;;;;25.26;46.94;101169.59;5035502;28;45721;-73
2022/10/22 10:06:59;;;;;;;;;0.67;0.00;;;;;25.26;47.03;101174.09;5035578;28;45326;-74
2022/10/22 10:09:26;;;;;;;;;0.00;0.00;;;;;25.25;46.92;101183.09;5035176;28;45948;-74
2022/10/22 10:12:03;;;;;;;;;1.00;0.00;;;;;25.24;46.94;101176.94;5035484;28;45402;-74
2022/10/22 10:14:41;;;;;;;;;1.00;1.00;;;;;25.21;46.74;101176.50;5035251;28;45365;-74
2022/10/22 10:17:24;;;;;;;;;1.00;1.00;;;;;25.23;46.95;101182.47;5035125;28;45537;-74
2022/10/22 10:19:52;;;;;;;;;0.33;0.33;;;;;25.23;47.09;101171.81;5034930;28;47281;-73
2022/10/22 10:22:45;;;;;;;;;0.00;0.00;;;;;25.22;47.10;101167.50;5034823;28;45471;-74
2022/10/22 10:26:12;;;;;;;;;0.00;0.00;;;;;25.22;47.44;101180.81;5035252;28;45361;-74
2022/10/22 10:28:49;;;;;;;;;0.00;0.00;;;;;25.16;47.20;101177.91;4914664;28;45628;-74
2022/10/22 10:31:36;;;;;;;;;0.00;0.00;;;;;25.21;47.22;101182.66;4915460;28;46849;-74
2022/10/22 10:34:13;;;;;;;;;1.67;1.00;;;;;25.20;46.81;101180.19;4915144;28;45444;-73
2022/10/22 10:36:53;;;;;;;;;0.00;0.00;;;;;25.19;47.10;101182.00;4915604;28;45448;-72
2022/10/22 10:39:44;;;;;;;;;3.33;1.00;;;;;25.20;46.12;101191.66;4914900;28;45588;-73
2022/10/22 10:42:27;;;;;;;;;1.00;0.33;;;;;25.15;45.24;101189.59;4876262;29;46164;-72
2022/10/22 10:45:15;;;;;;;;;0.33;0.00;;;;;25.07;45.08;101201.19;4877178;29;45432;-72
2022/10/22 10:47:59;;;;;;;;;1.00;0.00;;;;;25.02;44.78;101205.44;4876927;29;45394;-72
2022/10/22 10:50:55;;;;;;;;;1.33;1.00;;;;;24.95;44.34;101194.72;4877343;29;45524;-72
2022/10/22 10:53:39;;;;;;;;;1.00;1.00;;;;;24.88;44.28;101196.50;4876627;29;46273;-73
2022/10/22 10:56:13;;;;;;;;;2.00;1.00;;;;;24.80;44.51;101194.81;4879747;29;45529;-73
2022/10/22 10:58:41;;;;;;;;;0.00;0.00;;;;;24.79;44.50;101191.31;4887484;29;45510;-73
2022/10/22 11:01:35;;;;;;;;;7.67;7.00;;;;;24.78;44.60;101196.81;4899400;29;45544;-72
2022/10/22 11:04:33;;;;;;;;;2.33;2.00;;;;;24.78;44.15;101189.66;4899215;29;45484;-75
2022/10/22 11:07:06;;;;;;;;;1.33;1.33;;;;;24.77;44.30;101190.69;4985863;28;45351;-73
2022/10/22 11:09:40;;;;;;;;;2.00;0.33;;;;;24.77;44.38;101193.34;4999470;28;45532;-73
2022/10/22 11:12:15;;;;;;;;;1.00;0.00;;;;;24.74;44.36;101189.22;4986199;28;45342;-74
2022/10/22 11:15:08;;;;;;;;;1.33;0.00;;;;;24.75;44.15;101192.69;4992586;28;47046;-74
2022/10/22 11:17:41;;;;;;;;;2.00;0.00;;;;;24.72;44.38;101196.56;4995827;28;45390;-74
2022/10/22 11:20:18;;;;;;;;;1.00;0.33;;;;;24.71;44.13;101197.59;5031487;28;45417;-74
2022/10/22 11:22:47;;;;;;;;;2.33;2.00;;;;;24.71;44.00;101186.13;5037828;28;45461;-74
2022/10/22 11:25:12;;;;;;;;;1.00;1.00;;;;;24.70;43.71;101195.09;5037560;28;45406;-73
2022/10/22 11:28:01;;;;;;;;;0.33;0.00;;;;;24.66;44.11;101200.00;5037492;28;45359;-74
2022/10/22 11:30:34;;;;;;;;;2.00;2.00;;;;;24.64;44.06;101196.69;5037979;28;45333;-74
2022/10/22 11:33:03;;;;;;;;;1.00;1.00;;;;;24.65;44.37;101195.66;5037543;28;45279;-75
2022/10/22 11:35:39;;;;;;;;;4.00;1.33;;;;;24.68;44.57;101202.44;5037512;28;46480;-75
2022/10/22 11:38:06;;;;;;;;;0.00;0.00;;;;;24.70;44.79;101203.06;5037736;28;45368;-75